Observations for SOUTHEND-ON-SEA, United Kingdom (EGMC)

EGMC 151950Z 22012KT 9999 FEW036 19/15 Q1016
EGMC 151920Z 22014KT 9999 FEW036 21/15 Q1015
EGMC 151850Z 22015KT 9999 FEW036 21/14 Q1015
EGMC 151820Z 21015KT 9999 FEW036 21/14 Q1015
EGMC 151750Z 20013KT 9999 SCT037 22/14 Q1015
EGMC 151720Z 21015KT 9999 SCT035 22/15 Q1015
EGMC 151650Z 20013KT 9999 SCT040 22/14 Q1015
EGMC 151620Z 21014KT 9999 SCT040 23/15 Q1016
EGMC 151550Z 21014KT 9999 SCT034 22/14 Q1016
EGMC 151520Z 20013KT 9999 BKN035 23/15 Q1016
EGMC 151450Z 20012KT 9999 BKN034 23/15 Q1016
EGMC 151420Z 21013KT 9999 BKN032 23/15 Q1016
EGMC 151350Z 23013KT 9999 FEW029 BKN035 23/15 Q1017 
EGMC 151320Z 22013KT 9999 BKN030 22/15 Q1017
EGMC 151250Z 23012KT 9999 BKN030 21/14 Q1017
EGMC 151220Z 23012KT 9999 BKN030 21/14 Q1017
EGMC 151150Z 26012KT 9999 BKN032 22/15 Q1017
EGMC 151120Z 25012KT 9999 BKN032 22/14 Q1017
EGMC 151050Z 25011KT 9999 SCT030 21/13 Q1017
EGMC 151020Z 25011KT 210V280 9999 SCT029 22/14 Q1017
EGMC 150950Z 23011KT 9999 SCT027 21/13 Q1017
EGMC 150920Z 22011KT 9999 FEW025 20/13 Q1017
EGMC 150850Z 23010KT 200V270 9999 SCT027 19/13 Q1018
EGMC 150820Z 24009KT 210V280 9999 SCT023 20/14 Q1018
EGMC 150750Z 25006KT 210V280 9999 BKN020 18/14 Q1018
EGMC 150720Z 25005KT 210V280 9999 OVC019 18/14 Q1018
EGMC 150650Z 24006KT 9999 OVC020 17/13 Q1018
EGMC 150620Z 23005KT 9999 OVC020 17/14 Q1018
EGMC 150550Z 24006KT 9999 FEW010 BKN019 16/13 Q1017 
EGMC 150520Z 24005KT 9999 FEW010 BKN020 16/13 Q1017 
EGMC 150450Z 24006KT CAVOK 15/12 Q1017  
EGMC 150420Z 24007KT CAVOK 14/12 Q1017  
EGMC 150350Z 24007KT CAVOK 15/12 Q1017  
EGMC 150320Z 24006KT CAVOK 15/12 Q1017  
EGMC 150250Z 24006KT CAVOK 15/12 Q1017  
EGMC 150150Z 24005KT CAVOK 16/12 Q1017  
EGMC 150020Z 26008KT CAVOK 17/12 Q1017  
EGMC 142320Z 26007KT CAVOK 18/12 Q1017  
EGMC 142250Z 25009KT CAVOK 18/12 Q1017  
EGMC 142220Z 27007KT CAVOK 20/13 Q1017  
EGMC 142150Z 27007KT CAVOK 21/14 Q1017  
EGMC 142120Z 27007KT 9999 FEW048 20/14 Q1017
EGMC 142050Z 27006KT 9999 FEW048 20/14 Q1016
EGMC 142020Z 27006KT 9999 FEW048 20/13 Q1016
EGMC 141950Z 28006KT CAVOK 20/13 Q1016  
EGMC 141920Z 28003KT 9999 SCT046 22/14 Q1016